Time;durP1;ratioP1;P1;durP2;ratioP2;P2;SDS_P1;SDS_P2;PMS_P1;PMS_P2;Temp;Humidity;BMP_temperature;BMP_pressure;BME280_temperature;BME280_humidity;BME280_pressure;Samples;Min_cycle;Max_cycle;Signal;HPM_P1;HPM_P2
2022/06/13 00:00:31;;;;;;;5.38;3.50;;;19.70;82.60;;;;;;2087516;28;20036;-68
2022/06/13 00:01:33;;;;;;;6.25;3.60;;;19.60;82.50;;;;;;2088041;28;20021;-69
2022/06/13 00:02:35;;;;;;;5.03;3.53;;;19.60;83.10;;;;;;2087989;28;20052;-70
2022/06/13 00:03:36;;;;;;;6.63;3.38;;;19.60;83.20;;;;;;2088051;28;20075;-69
2022/06/13 00:04:37;;;;;;;6.80;3.78;;;19.60;83.20;;;;;;2088218;28;20497;-70
2022/06/13 00:05:38;;;;;;;5.22;3.80;;;19.50;83.20;;;;;;2088050;28;20096;-69
2022/06/13 00:06:39;;;;;;;5.55;3.60;;;19.50;83.20;;;;;;2095691;28;20118;-69
2022/06/13 00:07:39;;;;;;;5.80;3.50;;;19.50;83.30;;;;;;2087594;28;20040;-69
2022/06/13 00:08:40;;;;;;;5.85;3.40;;;19.50;83.20;;;;;;2079270;28;20091;-69
2022/06/13 00:09:41;;;;;;;5.05;3.33;;;19.40;83.20;;;;;;2087950;28;20047;-69
2022/06/13 00:10:42;;;;;;;7.53;3.80;;;19.40;83.40;;;;;;2087848;28;20029;-69
2022/06/13 00:11:42;;;;;;;6.13;3.60;;;19.40;83.40;;;;;;2087936;28;20089;-69
2022/06/13 00:12:43;;;;;;;5.15;3.38;;;19.40;83.50;;;;;;2088116;28;20032;-69
2022/06/13 00:13:48;;;;;;;4.28;3.28;;;19.40;83.50;;;;;;2087733;28;20028;-69
2022/06/13 00:14:48;;;;;;;4.97;3.30;;;19.40;83.70;;;;;;2087773;28;20025;-70
2022/06/13 00:15:49;;;;;;;5.85;3.53;;;19.40;84.20;;;;;;2087759;28;20602;-69
2022/06/13 00:16:50;;;;;;;6.57;3.55;;;19.40;84.40;;;;;;2087778;28;20059;-70
2022/06/13 00:17:50;;;;;;;5.05;3.17;;;19.40;84.60;;;;;;2095477;28;20036;-70
2022/06/13 00:18:52;;;;;;;4.13;3.10;;;19.40;84.50;;;;;;2095477;28;20047;-69
2022/06/13 00:19:52;;;;;;;5.88;3.45;;;19.40;84.60;;;;;;2087702;28;20136;-70
2022/06/13 00:20:54;;;;;;;5.45;3.30;;;19.30;84.00;;;;;;2087390;28;20029;-70
2022/06/13 00:21:55;;;;;;;7.60;3.55;;;19.30;83.40;;;;;;2078697;28;20028;-71
2022/06/13 00:22:55;;;;;;;8.10;3.80;;;19.30;82.60;;;;;;2078725;28;20687;-70
2022/06/13 00:23:56;;;;;;;5.40;3.60;;;19.30;82.60;;;;;;2087680;28;20036;-70
2022/06/13 00:24:57;;;;;;;5.82;3.20;;;19.20;82.70;;;;;;2087545;28;20121;-70
2022/06/13 00:25:58;;;;;;;5.07;3.20;;;19.20;82.80;;;;;;2095307;28;20554;-70
2022/06/13 00:26:58;;;;;;;5.05;3.53;;;19.30;83.00;;;;;;2095195;28;20045;-69
2022/06/13 00:27:59;;;;;;;4.47;3.08;;;19.20;83.00;;;;;;2087675;28;20036;-69
2022/06/13 00:29:01;;;;;;;4.10;3.10;;;19.20;83.10;;;;;;2087534;28;20037;-69
2022/06/13 00:30:05;;;;;;;6.30;3.53;;;19.20;83.30;;;;;;2087319;28;20071;-70
2022/06/13 00:31:05;;;;;;;6.40;3.40;;;19.20;83.90;;;;;;2087281;28;20074;-69
2022/06/13 00:32:06;;;;;;;5.53;3.20;;;19.20;85.90;;;;;;2087635;28;20098;-69
2022/06/13 00:33:07;;;;;;;5.55;3.53;;;19.20;85.60;;;;;;2087522;28;20024;-70
2022/06/13 00:34:08;;;;;;;5.18;3.10;;;19.10;86.00;;;;;;2087634;28;20040;-71
2022/06/13 00:35:09;;;;;;;5.60;3.35;;;19.10;86.70;;;;;;2078677;28;20029;-70
2022/06/13 00:36:10;;;;;;;6.15;3.45;;;19.10;86.90;;;;;;2078788;28;20087;-70
2022/06/13 00:37:10;;;;;;;5.65;3.22;;;19.10;85.80;;;;;;2087539;28;20044;-69
2022/06/13 00:38:11;;;;;;;5.85;3.22;;;19.10;85.00;;;;;;2095361;28;20025;-69
2022/06/13 00:39:13;;;;;;;4.38;3.30;;;19.10;84.50;;;;;;2096943;28;20482;-69
2022/06/13 00:40:14;;;;;;;5.07;3.30;;;19.00;84.20;;;;;;2089231;28;20079;-70
2022/06/13 00:41:18;;;;;;;4.53;3.30;;;19.00;83.80;;;;;;2088768;28;20028;-69
2022/06/13 00:42:21;;;;;;;5.13;3.70;;;19.00;83.80;;;;;;2089145;28;20460;-69
2022/06/13 00:43:22;;;;;;;5.97;3.60;;;19.00;83.80;;;;;;2089195;28;20108;-69
2022/06/13 00:44:33;;;;;;;5.03;3.40;;;19.00;83.90;;;;;;2089289;28;20021;-70
2022/06/13 00:45:36;;;;;;;6.97;3.67;;;19.00;84.00;;;;;;2089217;28;20163;-70
2022/06/13 00:46:37;;;;;;;5.00;3.42;;;19.00;84.10;;;;;;2080282;28;20112;-69
2022/06/13 00:47:39;;;;;;;5.60;3.70;;;19.00;84.30;;;;;;2080245;28;20033;-69
2022/06/13 00:48:40;;;;;;;7.57;3.72;;;18.90;84.30;;;;;;2089157;28;20037;-69
2022/06/13 00:49:43;;;;;;;6.70;3.80;;;19.00;84.30;;;;;;2089096;28;20368;-69
2022/06/13 00:50:55;;;;;;;5.22;3.70;;;18.90;84.30;;;;;;2088931;28;20944;-70
2022/06/13 00:52:14;;;;;;;6.57;3.85;;;19.00;84.30;;;;;;2089061;28;20557;-70
2022/06/13 00:53:34;;;;;;;6.97;3.72;;;18.90;83.90;;;;;;2089074;28;20394;-69
2022/06/13 00:54:37;;;;;;;8.07;4.00;;;18.90;83.80;;;;;;2089156;28;20110;-70
2022/06/13 00:55:49;;;;;;;6.85;4.22;;;18.90;83.80;;;;;;2080279;28;20279;-69
2022/06/13 00:56:51;;;;;;;6.13;3.83;;;18.90;83.80;;;;;;2073489;28;20030;-69
2022/06/13 00:57:53;;;;;;;6.13;3.90;;;18.90;84.10;;;;;;2080375;28;20428;-69
2022/06/13 00:59:01;;;;;;;6.53;4.00;;;18.80;84.10;;;;;;2089232;28;20515;-69
2022/06/13 01:00:07;;;;;;;7.32;3.78;;;18.80;84.70;;;;;;2080085;28;20037;-69
2022/06/13 01:01:08;;;;;;;7.95;4.00;;;18.80;85.00;;;;;;2080571;28;20025;-69
2022/06/13 01:02:10;;;;;;;6.03;4.07;;;18.80;85.70;;;;;;2089127;28;20376;-69
2022/06/13 01:03:12;;;;;;;6.80;4.00;;;18.80;85.40;;;;;;2089029;28;20100;-69
2022/06/13 01:04:13;;;;;;;6.40;4.32;;;18.80;85.50;;;;;;2088212;28;20021;-70
2022/06/13 01:05:20;;;;;;;7.00;3.70;;;18.80;86.00;;;;;;2088598;28;20029;-69
2022/06/13 01:06:25;;;;;;;6.05;3.83;;;18.70;86.30;;;;;;2089356;28;20017;-69
2022/06/13 01:07:28;;;;;;;5.70;3.85;;;18.70;86.60;;;;;;2080468;28;20104;-69
2022/06/13 01:08:32;;;;;;;6.07;3.78;;;18.70;86.90;;;;;;2080856;28;20108;-69
2022/06/13 01:11:16;;;;;;;5.82;3.85;;;18.70;88.00;;;;;;2083111;28;20037;-70
2022/06/13 01:12:17;;;;;;;8.82;4.10;;;18.60;88.40;;;;;;2080568;28;20040;-68
2022/06/13 01:13:18;;;;;;;6.43;4.18;;;18.60;88.90;;;;;;2080306;28;20065;-69
2022/06/13 01:14:29;;;;;;;6.78;3.95;;;18.60;89.00;;;;;;2080321;28;20083;-71
2022/06/13 01:15:56;;;;;;;6.25;4.05;;;18.50;88.00;;;;;;2089020;28;20017;-69
2022/06/13 01:17:25;;;;;;;8.00;4.10;;;18.50;87.60;;;;;;2086526;28;20079;-69
2022/06/13 01:18:43;;;;;;;6.88;4.10;;;18.50;87.80;;;;;;2089147;28;20074;-70
2022/06/13 01:19:49;;;;;;;9.65;4.50;;;18.50;87.90;;;;;;2096968;28;20028;-70
2022/06/13 01:20:53;;;;;;;6.43;4.20;;;18.40;87.30;;;;;;2087358;28;20253;-70
2022/06/13 01:22:12;;;;;;;6.13;4.18;;;18.40;87.70;;;;;;2080582;28;20029;-69
2022/06/13 01:23:22;;;;;;;5.85;3.90;;;18.40;87.90;;;;;;2088840;28;20038;-69
2022/06/13 01:24:45;;;;;;;6.72;3.97;;;18.50;88.40;;;;;;2088854;28;20028;-68
2022/06/13 01:26:01;;;;;;;7.28;4.00;;;18.50;87.60;;;;;;2088945;28;20479;-67
2022/06/13 01:27:21;;;;;;;6.88;4.00;;;18.40;87.70;;;;;;2088980;28;20033;-69
2022/06/13 01:28:41;;;;;;;6.63;3.95;;;18.40;87.00;;;;;;2079895;28;20052;-70
2022/06/13 01:30:18;;;;;;;6.43;3.40;;;18.40;86.80;;;;;;2082811;28;20031;-70
2022/06/13 01:31:36;;;;;;;6.40;3.88;;;18.40;86.40;;;;;;2088718;28;20044;-70
2022/06/13 01:32:52;;;;;;;8.27;3.92;;;18.40;86.00;;;;;;2089090;28;20033;-70
2022/06/13 01:34:11;;;;;;;7.50;3.80;;;18.40;85.90;;;;;;2088993;28;20033;-69
2022/06/13 01:35:35;;;;;;;7.15;3.90;;;18.40;86.60;;;;;;2089148;28;20468;-68
2022/06/13 01:37:13;;;;;;;6.00;3.80;;;18.40;87.10;;;;;;2089026;28;20472;-67
2022/06/13 01:38:35;;;;;;;8.77;4.55;;;18.40;88.00;;;;;;2088877;28;20048;-69
2022/06/13 01:40:29;;;;;;;8.32;4.45;;;18.40;88.60;;;;;;2088755;28;20056;-69
2022/06/13 01:41:35;;;;;;;8.50;4.78;;;18.40;88.50;;;;;;2063066;28;20039;-70
2022/06/13 01:42:47;;;;;;;7.28;4.30;;;18.30;88.90;;;;;;2063157;28;20045;-68
2022/06/13 01:44:06;;;;;;;7.60;4.35;;;18.30;88.60;;;;;;2080091;28;20087;-67
2022/06/13 01:45:10;;;;;;;9.02;4.97;;;18.40;89.00;;;;;;2088974;28;20037;-68
2022/06/13 01:46:23;;;;;;;10.45;5.05;;;18.30;88.70;;;;;;2096467;28;20036;-68
2022/06/13 01:47:32;;;;;;;17.33;6.90;;;18.30;88.70;;;;;;2094932;28;20012;-69
2022/06/13 01:48:56;;;;;;;12.80;6.57;;;18.30;88.70;;;;;;2088897;28;20032;-69
2022/06/13 01:50:15;;;;;;;10.55;5.75;;;18.30;88.90;;;;;;2088459;28;20506;-68
2022/06/13 01:51:25;;;;;;;10.35;5.82;;;18.30;89.30;;;;;;2088490;28;20033;-69
2022/06/13 01:52:51;;;;;;;12.90;6.15;;;18.20;89.90;;;;;;2089040;28;20019;-69
2022/06/13 01:53:55;;;;;;;18.40;7.30;;;18.20;90.20;;;;;;2080533;28;20060;-69
2022/06/13 01:55:07;;;;;;;17.70;7.05;;;18.20;90.20;;;;;;2088859;28;20498;-69
2022/06/13 01:56:25;;;;;;;17.77;6.72;;;18.20;90.30;;;;;;2080009;28;20036;-68
2022/06/13 01:58:27;;;;;;;13.68;6.60;;;18.20;90.40;;;;;;2082619;28;20017;-68
2022/06/13 01:59:46;;;;;;;17.10;6.82;;;18.20;90.30;;;;;;2050464;28;20035;-69
2022/06/13 02:01:04;;;;;;;16.58;6.93;;;18.20;90.50;;;;;;2054708;28;20154;-68
2022/06/13 02:02:11;;;;;;;17.20;6.40;;;18.20;90.60;;;;;;2057266;28;20034;-68
2022/06/13 02:03:14;;;;;;;15.10;6.07;;;18.10;90.60;;;;;;2062996;28;20108;-69
2022/06/13 02:04:22;;;;;;;14.20;6.13;;;18.10;90.60;;;;;;2062856;28;20488;-68
2022/06/13 02:05:31;;;;;;;15.98;6.30;;;18.10;90.60;;;;;;2088758;28;20021;-68
2022/06/13 02:06:36;;;;;;;13.40;6.10;;;18.10;90.70;;;;;;2088700;28;20017;-68
2022/06/13 02:07:42;;;;;;;9.75;5.30;;;18.10;90.80;;;;;;2088714;28;20051;-70
2022/06/13 02:08:59;;;;;;;11.60;5.82;;;18.10;90.90;;;;;;2088720;28;20044;-69
2022/06/13 02:10:04;;;;;;;10.18;5.63;;;18.10;91.00;;;;;;2088608;28;20695;-68
2022/06/13 02:11:13;;;;;;;10.27;5.45;;;18.00;91.10;;;;;;2088345;28;20044;-69
2022/06/13 02:12:15;;;;;;;12.00;5.32;;;18.00;91.20;;;;;;2088671;28;20061;-69
2022/06/13 02:13:57;;;;;;;10.20;5.45;;;18.00;91.20;;;;;;2088497;28;20021;-69
2022/06/13 02:15:13;;;;;;;12.18;4.65;;;18.00;91.20;;;;;;2088853;28;20043;-68
2022/06/13 02:16:25;;;;;;;12.68;5.00;;;17.90;91.40;;;;;;2088600;28;20580;-69
2022/06/13 02:17:31;;;;;;;8.48;4.97;;;17.90;91.50;;;;;;2088605;28;20039;-69
2022/06/13 02:18:35;;;;;;;11.25;4.80;;;17.90;91.60;;;;;;2079695;28;20097;-68
2022/06/13 02:19:42;;;;;;;9.18;4.47;;;17.90;91.60;;;;;;2072009;28;20041;-69
2022/06/13 02:20:49;;;;;;;10.52;4.72;;;17.90;91.60;;;;;;2080187;28;20143;-70
2022/06/13 02:22:05;;;;;;;12.25;5.10;;;17.90;91.60;;;;;;2088571;28;20029;-68
2022/06/13 02:23:20;;;;;;;11.07;4.93;;;17.90;91.70;;;;;;2088400;28;20059;-69
2022/06/13 02:24:25;;;;;;;11.13;5.32;;;17.80;92.00;;;;;;2088617;28;20068;-69
2022/06/13 02:25:43;;;;;;;8.95;4.80;;;17.80;92.10;;;;;;2088590;28;20043;-68
2022/06/13 02:26:48;;;;;;;8.20;4.97;;;17.80;92.10;;;;;;2088529;28;20078;-70
2022/06/13 02:28:07;;;;;;;8.15;4.50;;;17.80;92.00;;;;;;2088564;28;20017;-68
2022/06/13 02:29:14;;;;;;;8.45;4.30;;;17.80;91.90;;;;;;2088526;28;20042;-69
2022/06/13 02:30:19;;;;;;;8.18;4.28;;;17.80;91.90;;;;;;2088358;28;20082;-70
2022/06/13 02:31:32;;;;;;;9.18;4.53;;;17.80;92.00;;;;;;2087923;28;20044;-70
2022/06/13 02:32:39;;;;;;;8.35;4.20;;;17.80;91.80;;;;;;2088325;28;20025;-69
2022/06/13 02:34:06;;;;;;;8.32;4.47;;;17.80;91.60;;;;;;2088316;28;20648;-70
2022/06/13 02:35:12;;;;;;;8.40;4.15;;;17.80;91.30;;;;;;2081431;28;20041;-69
2022/06/13 02:36:21;;;;;;;7.82;3.90;;;17.80;90.90;;;;;;2088318;28;20033;-69
2022/06/13 02:37:33;;;;;;;9.88;4.50;;;17.80;90.90;;;;;;2088298;28;20029;-69
2022/06/13 02:38:41;;;;;;;8.57;4.10;;;17.80;90.70;;;;;;2088371;28;20498;-70
2022/06/13 02:40:10;;;;;;;7.82;4.15;;;17.80;90.50;;;;;;2088331;28;20033;-70
2022/06/13 02:41:15;;;;;;;9.90;4.65;;;17.80;90.50;;;;;;2088109;28;20025;-69
2022/06/13 02:42:28;;;;;;;10.00;4.93;;;17.90;90.50;;;;;;2088401;28;20087;-69
2022/06/13 02:43:33;;;;;;;8.77;4.57;;;17.90;90.50;;;;;;2088451;28;20090;-69
2022/06/13 02:44:42;;;;;;;9.02;4.60;;;17.90;90.50;;;;;;2088410;28;20454;-70
2022/06/13 02:45:59;;;;;;;6.78;4.20;;;17.90;90.60;;;;;;2088299;28;20056;-69
2022/06/13 02:47:09;;;;;;;7.35;4.55;;;17.90;90.60;;;;;;2088312;28;20043;-69
2022/06/13 02:48:35;;;;;;;8.30;4.65;;;17.90;90.70;;;;;;2088380;28;20032;-69
2022/06/13 02:50:02;;;;;;;8.13;4.57;;;17.90;90.40;;;;;;2088320;28;20498;-69
2022/06/13 02:51:40;;;;;;;11.10;4.47;;;17.90;90.30;;;;;;2071288;28;20033;-69
2022/06/13 02:52:56;;;;;;;8.30;4.85;;;17.90;90.80;;;;;;2084809;28;20032;-69
2022/06/13 02:54:08;;;;;;;7.03;4.60;;;17.90;91.00;;;;;;2088392;28;20025;-69
2022/06/13 02:55:12;;;;;;;7.63;4.50;;;17.90;91.20;;;;;;2088314;28;20048;-70
2022/06/13 02:56:31;;;;;;;6.90;4.30;;;17.90;91.20;;;;;;2079354;28;20047;-70
2022/06/13 02:57:32;;;;;;;8.02;4.60;;;17.90;91.40;;;;;;2081979;28;20098;-69
2022/06/13 02:58:52;;;;;;;7.40;4.20;;;17.90;91.40;;;;;;2088281;28;20404;-69
2022/06/13 03:00:14;;;;;;;7.20;4.20;;;17.90;91.50;;;;;;2088306;28;20427;-69
2022/06/13 03:01:24;;;;;;;7.88;4.40;;;17.90;91.50;;;;;;2087633;28;20025;-70
2022/06/13 03:02:32;;;;;;;7.38;4.60;;;17.90;91.50;;;;;;2088501;28;20035;-70
2022/06/13 03:04:16;;;;;;;11.77;5.22;;;17.90;91.60;;;;;;2088457;28;20017;-69
2022/06/13 03:05:26;;;;;;;7.40;4.65;;;17.90;91.70;;;;;;2088287;28;20029;-69
2022/06/13 03:06:52;;;;;;;8.65;4.95;;;17.80;91.80;;;;;;2079452;28;20048;-69
2022/06/13 03:08:02;;;;;;;7.05;4.63;;;17.80;91.60;;;;;;2065615;28;20120;-69
2022/06/13 03:09:15;;;;;;;8.38;4.50;;;17.80;91.80;;;;;;2088431;28;20029;-68
2022/06/13 03:10:21;;;;;;;9.45;4.63;;;17.80;91.90;;;;;;2088147;28;20488;-69
2022/06/13 03:11:30;;;;;;;11.25;4.75;;;17.80;91.90;;;;;;2088103;28;20070;-69
2022/06/13 03:12:48;;;;;;;9.07;4.20;;;17.70;91.10;;;;;;2088246;28;20039;-69
2022/06/13 03:14:10;;;;;;;8.75;4.60;;;17.70;90.70;;;;;;2088129;28;20507;-69
2022/06/13 03:15:22;;;;;;;7.22;4.10;;;17.70;89.40;;;;;;2095926;28;20040;-69
2022/06/13 03:16:26;;;;;;;7.00;4.22;;;17.70;88.70;;;;;;2094549;28;20059;-68
2022/06/13 03:17:32;;;;;;;7.93;4.20;;;17.60;88.90;;;;;;2088166;28;20028;-69
2022/06/13 03:18:51;;;;;;;8.80;4.03;;;17.60;88.60;;;;;;2079527;28;20030;-69
2022/06/13 03:20:04;;;;;;;8.15;4.35;;;17.60;88.50;;;;;;2081946;28;20384;-69
2022/06/13 03:21:24;;;;;;;6.50;3.90;;;17.60;89.10;;;;;;2088237;28;20082;-69
2022/06/13 03:22:57;;;;;;;7.80;3.88;;;17.60;89.10;;;;;;2088110;28;20024;-69
2022/06/13 03:24:09;;;;;;;8.65;4.00;;;17.50;88.80;;;;;;2088629;28;20028;-68
2022/06/13 03:25:36;;;;;;;8.23;4.15;;;17.50;88.60;;;;;;2079445;28;20108;-69
2022/06/13 03:26:43;;;;;;;5.65;3.55;;;17.50;89.20;;;;;;2083339;28;20021;-69
2022/06/13 03:27:56;;;;;;;6.63;3.60;;;17.60;89.30;;;;;;2088111;28;20037;-69
2022/06/13 03:29:10;;;;;;;5.97;4.10;;;17.50;89.10;;;;;;2088116;28;20043;-69
2022/06/13 03:30:18;;;;;;;9.63;4.13;;;17.60;89.80;;;;;;2088138;28;20059;-69
2022/06/13 03:31:34;;;;;;;8.18;3.92;;;17.60;90.40;;;;;;2087975;28;20020;-69
2022/06/13 03:34:31;;;;;;;4.72;3.55;;;17.50;90.00;;;;;;2088054;28;20667;-70
2022/06/13 03:35:32;;;;;;;7.80;4.10;;;17.50;90.00;;;;;;2088093;28;20025;-69
2022/06/13 03:36:42;;;;;;;7.63;4.07;;;17.50;90.10;;;;;;2079223;28;20152;-69
2022/06/13 03:37:49;;;;;;;6.60;3.90;;;17.50;90.20;;;;;;2080538;28;20069;-69
2022/06/13 03:39:00;;;;;;;9.40;4.25;;;17.50;90.10;;;;;;2088159;28;20029;-68
2022/06/13 03:40:24;;;;;;;6.70;3.90;;;17.50;89.60;;;;;;2079096;28;20032;-69
2022/06/13 03:41:31;;;;;;;7.13;3.63;;;17.50;89.60;;;;;;2081606;28;20151;-68
2022/06/13 03:42:50;;;;;;;7.40;3.90;;;17.50;89.30;;;;;;2088025;28;20496;-69
2022/06/13 03:43:58;;;;;;;9.85;3.95;;;17.60;89.40;;;;;;2088029;28;20079;-68
2022/06/13 03:45:16;;;;;;;10.15;4.22;;;17.60;89.10;;;;;;2088085;28;20021;-70
2022/06/13 03:47:00;;;;;;;6.45;3.63;;;17.60;89.50;;;;;;2088344;28;20044;-70
2022/06/13 03:48:18;;;;;;;7.63;4.05;;;17.60;89.80;;;;;;2062494;28;20118;-68
2022/06/13 03:49:26;;;;;;;9.32;4.20;;;17.60;89.30;;;;;;2062983;28;20030;-69
2022/06/13 03:50:40;;;;;;;7.25;3.67;;;17.50;89.90;;;;;;2066516;28;20032;-68
2022/06/13 03:51:45;;;;;;;6.68;3.72;;;17.50;90.10;;;;;;2081302;28;20029;-69
2022/06/13 03:52:53;;;;;;;8.90;3.90;;;17.50;90.20;;;;;;2088199;28;20025;-68
2022/06/13 03:54:08;;;;;;;8.50;4.00;;;17.50;89.90;;;;;;2088351;28;20043;-68
2022/06/13 03:55:12;;;;;;;8.43;3.92;;;17.40;89.40;;;;;;2088350;28;20025;-69
2022/06/13 03:56:20;;;;;;;6.40;4.03;;;17.40;89.20;;;;;;2079565;28;20033;-69
2022/06/13 03:57:48;;;;;;;8.35;4.05;;;17.50;89.20;;;;;;2072345;28;20121;-69
2022/06/13 03:58:56;;;;;;;8.32;4.05;;;17.50;89.70;;;;;;2083214;28;20040;-69
2022/06/13 04:00:10;;;;;;;5.28;3.67;;;17.40;90.20;;;;;;2088056;28;20033;-70
2022/06/13 04:01:26;;;;;;;5.13;3.47;;;17.50;90.10;;;;;;2088013;28;20596;-69
2022/06/13 04:02:31;;;;;;;8.50;3.70;;;17.60;90.20;;;;;;2088098;28;20024;-70
2022/06/13 04:03:31;;;;;;;5.82;3.80;;;17.60;89.60;;;;;;2088091;28;20569;-70
2022/06/13 04:04:37;;;;;;;7.05;3.50;;;17.60;89.30;;;;;;2088151;28;20040;-69
2022/06/13 04:06:02;;;;;;;9.63;4.18;;;17.60;89.10;;;;;;2088043;28;20044;-69
2022/06/13 04:07:04;;;;;;;6.50;3.95;;;17.60;88.50;;;;;;2088061;28;20132;-71
2022/06/13 04:08:06;;;;;;;6.40;3.67;;;17.60;88.20;;;;;;2088269;28;20043;-70
2022/06/13 04:09:18;;;;;;;6.68;3.20;;;17.60;88.50;;;;;;2079373;28;20067;-69
2022/06/13 04:10:23;;;;;;;9.90;3.80;;;17.60;88.40;;;;;;2080966;28;20104;-70
2022/06/13 04:11:45;;;;;;;7.53;4.07;;;17.70;88.30;;;;;;2087870;28;20430;-69
2022/06/13 04:13:24;;;;;;;8.20;3.95;;;17.70;87.30;;;;;;2088077;28;20029;-70
2022/06/13 04:14:47;;;;;;;6.13;3.70;;;17.70;87.10;;;;;;2064743;28;20062;-70
2022/06/13 04:16:07;;;;;;;6.22;3.10;;;17.70;87.50;;;;;;2088263;28;20028;-69
2022/06/13 04:17:24;;;;;;;7.57;3.50;;;17.90;87.30;;;;;;2087898;28;20037;-69
2022/06/13 04:18:30;;;;;;;6.40;3.72;;;18.00;86.80;;;;;;2079169;28;20260;-70
2022/06/13 04:19:37;;;;;;;6.38;3.60;;;18.10;87.50;;;;;;2080101;28;20041;-69
2022/06/13 04:21:31;;;;;;;7.18;3.50;;;18.10;87.30;;;;;;2087632;28;20687;-70
2022/06/13 04:22:48;;;;;;;9.48;3.38;;;18.10;87.60;;;;;;2062034;28;20026;-70
2022/06/13 04:23:53;;;;;;;6.05;3.45;;;18.10;87.70;;;;;;2054066;28;20109;-71
2022/06/13 04:25:01;;;;;;;6.13;3.80;;;18.10;86.70;;;;;;2057218;28;20034;-68
2022/06/13 04:26:14;;;;;;;7.40;3.78;;;18.00;85.90;;;;;;2080324;28;20041;-69
2022/06/13 04:27:21;;;;;;;7.32;3.53;;;17.90;86.10;;;;;;2088162;28;20090;-68
2022/06/13 04:28:42;;;;;;;7.75;4.10;;;17.80;86.30;;;;;;2088315;28;20886;-70
2022/06/13 04:30:10;;;;;;;8.85;4.10;;;17.60;86.90;;;;;;2079274;28;20669;-69
2022/06/13 04:31:13;;;;;;;8.10;3.70;;;17.50;87.40;;;;;;2083128;28;20567;-69
2022/06/13 04:32:19;;;;;;;7.20;3.97;;;17.40;87.80;;;;;;2087888;28;20094;-69
2022/06/13 04:33:41;;;;;;;9.50;4.25;;;17.40;88.10;;;;;;2087905;28;20037;-69
2022/06/13 04:34:46;;;;;;;7.75;4.20;;;17.30;88.80;;;;;;2087982;28;20036;-70
2022/06/13 04:35:48;;;;;;;7.22;4.00;;;17.30;89.10;;;;;;2087916;28;20041;-68
2022/06/13 04:36:51;;;;;;;6.57;3.65;;;17.30;89.20;;;;;;2087819;28;20378;-69
2022/06/13 04:37:52;;;;;;;10.90;4.15;;;17.30;89.20;;;;;;2087776;28;20033;-69
2022/06/13 04:38:58;;;;;;;7.65;3.90;;;17.30;89.10;;;;;;2088254;28;20511;-69
2022/06/13 04:40:03;;;;;;;6.43;3.60;;;17.30;89.20;;;;;;2087908;28;20079;-70
2022/06/13 04:41:05;;;;;;;9.55;4.20;;;17.40;89.10;;;;;;2087675;28;20037;-69
2022/06/13 04:42:08;;;;;;;7.03;3.75;;;17.60;88.50;;;;;;2087954;28;20083;-68
2022/06/13 04:43:13;;;;;;;8.95;4.10;;;17.80;87.90;;;;;;2087901;28;20395;-69
2022/06/13 04:44:21;;;;;;;6.45;3.55;;;17.90;86.80;;;;;;2087861;28;20029;-70
2022/06/13 04:45:23;;;;;;;7.15;3.90;;;18.10;86.40;;;;;;2088154;28;20033;-70
2022/06/13 04:46:27;;;;;;;6.28;3.63;;;18.20;85.50;;;;;;2087951;28;20090;-70
2022/06/13 04:47:27;;;;;;;7.30;3.85;;;18.30;84.80;;;;;;2088006;28;20090;-69
2022/06/13 04:48:29;;;;;;;9.25;3.75;;;18.30;85.10;;;;;;2087720;28;20091;-70
2022/06/13 04:49:35;;;;;;;6.72;3.60;;;18.30;85.20;;;;;;2087984;28;20055;-71
2022/06/13 04:50:43;;;;;;;7.15;3.40;;;18.40;85.00;;;;;;2078588;28;20033;-71
2022/06/13 04:51:45;;;;;;;6.40;3.33;;;18.50;84.50;;;;;;2080197;28;20029;-70
2022/06/13 04:52:48;;;;;;;8.20;3.53;;;18.60;84.20;;;;;;2087912;28;20364;-70
2022/06/13 04:54:02;;;;;;;6.57;3.60;;;18.70;83.90;;;;;;2087931;28;20032;-68
2022/06/13 04:55:12;;;;;;;6.47;3.58;;;18.80;83.60;;;;;;2087860;28;20036;-69
2022/06/13 04:56:13;;;;;;;10.98;3.88;;;18.90;82.90;;;;;;2087904;28;20025;-69
2022/06/13 04:57:16;;;;;;;6.15;3.40;;;19.10;82.20;;;;;;2087638;28;20033;-71
2022/06/13 04:58:38;;;;;;;7.38;3.50;;;19.20;81.90;;;;;;2087779;28;20585;-70
2022/06/13 04:59:41;;;;;;;7.93;3.58;;;19.50;81.30;;;;;;2088030;28;20025;-70
2022/06/13 05:00:44;;;;;;;8.40;3.60;;;19.90;81.10;;;;;;2087569;28;20391;-70
2022/06/13 05:01:48;;;;;;;7.72;3.40;;;20.20;78.60;;;;;;2088014;28;20037;-71
2022/06/13 05:02:52;;;;;;;5.15;3.00;;;20.60;77.50;;;;;;2087666;28;20021;-72
2022/06/13 05:03:57;;;;;;;9.45;3.42;;;21.10;76.20;;;;;;2079241;28;20017;-71
2022/06/13 05:04:58;;;;;;;6.40;3.28;;;21.50;74.70;;;;;;2079872;28;20096;-71
2022/06/13 05:06:04;;;;;;;5.65;3.00;;;21.90;73.50;;;;;;2088061;28;20180;-69
2022/06/13 05:07:11;;;;;;;6.97;3.38;;;22.10;72.70;;;;;;2087980;28;20021;-70
2022/06/13 05:08:23;;;;;;;6.38;3.40;;;22.20;70.90;;;;;;2088053;28;20469;-70
2022/06/13 05:09:33;;;;;;;7.28;3.17;;;22.60;70.40;;;;;;2079005;28;20018;-70
2022/06/13 05:10:35;;;;;;;;;;;22.80;68.00;;;;;;2080527;28;20037;-71
2022/06/13 05:11:42;;;;;;;7.57;2.80;;;23.10;67.70;;;;;;2087841;28;19908;-71
2022/06/13 05:12:44;;;;;;;7.65;3.20;;;23.50;67.20;;;;;;2079035;28;20063;-71
2022/06/13 05:13:47;;;;;;;6.72;3.05;;;23.90;65.30;;;;;;2078910;28;20037;-71
2022/06/13 05:14:56;;;;;;;5.80;2.60;;;24.20;64.40;;;;;;2087686;28;20055;-69
2022/06/13 05:16:15;;;;;;;6.82;3.25;;;24.20;63.00;;;;;;2079263;28;20045;-70
2022/06/13 05:17:41;;;;;;;7.05;3.30;;;24.50;62.00;;;;;;2081638;28;20030;-70
2022/06/13 05:18:49;;;;;;;6.22;2.75;;;24.50;61.00;;;;;;2087996;28;20032;-70
2022/06/13 05:20:10;;;;;;;5.13;3.10;;;24.60;61.00;;;;;;2087829;28;20053;-70
2022/06/13 05:21:29;;;;;;;6.68;2.83;;;24.50;61.20;;;;;;2095552;28;20033;-69
2022/06/13 05:23:03;;;;;;;7.65;3.28;;;24.40;60.60;;;;;;2093143;28;20037;-71
2022/06/13 05:24:11;;;;;;;4.60;2.97;;;23.90;61.60;;;;;;2088123;28;20033;-70
2022/06/13 05:25:40;;;;;;;8.57;3.20;;;23.60;63.00;;;;;;2089347;28;20021;-70
2022/06/13 05:26:41;;;;;;;9.32;2.92;;;23.60;63.80;;;;;;2074482;28;20053;-69
2022/06/13 05:27:41;;;;;;;7.95;2.80;;;23.70;63.60;;;;;;2080490;28;20041;-71
2022/06/13 05:28:42;;;;;;;5.22;2.80;;;23.80;63.70;;;;;;2089188;28;20128;-70
2022/06/13 05:29:43;;;;;;;7.57;2.90;;;23.90;63.60;;;;;;2088947;28;20069;-70
2022/06/13 05:30:46;;;;;;;6.82;2.78;;;23.80;63.20;;;;;;2096524;28;20021;-69
2022/06/13 05:31:47;;;;;;;9.70;3.47;;;23.80;63.50;;;;;;2096433;28;20033;-70
2022/06/13 05:32:48;;;;;;;6.35;2.92;;;23.60;63.60;;;;;;2089312;28;20045;-69
2022/06/13 05:33:50;;;;;;;6.75;2.63;;;23.40;64.10;;;;;;2089074;28;20416;-69
2022/06/13 05:34:53;;;;;;;7.53;2.90;;;23.70;63.90;;;;;;2089025;28;20123;-70
2022/06/13 05:35:56;;;;;;;6.53;3.00;;;23.80;63.70;;;;;;2080438;28;20039;-70
2022/06/13 05:36:56;;;;;;;6.85;2.85;;;23.80;63.80;;;;;;2080674;28;20041;-69
2022/06/13 05:38:01;;;;;;;6.95;3.10;;;23.70;63.10;;;;;;2080372;28;20030;-70
2022/06/13 05:39:06;;;;;;;8.13;3.03;;;23.60;64.40;;;;;;2081255;28;20021;-70
2022/06/13 05:40:14;;;;;;;6.88;3.20;;;23.50;64.90;;;;;;2089329;28;20534;-70
2022/06/13 05:41:14;;;;;;;5.65;3.00;;;23.70;64.50;;;;;;2088779;28;20037;-69
2022/06/13 05:42:15;;;;;;;10.45;3.17;;;23.80;63.70;;;;;;2080786;28;20053;-70
2022/06/13 05:43:16;;;;;;;9.88;3.08;;;23.90;62.40;;;;;;2072066;28;20512;-69
2022/06/13 05:44:17;;;;;;;6.38;3.08;;;24.10;61.80;;;;;;2080513;28;20104;-70
2022/06/13 05:45:22;;;;;;;6.72;2.65;;;24.20;61.20;;;;;;2080418;28;20026;-71
2022/06/13 05:46:28;;;;;;;5.80;2.90;;;24.10;61.40;;;;;;2082109;28;20033;-70
2022/06/13 05:47:29;;;;;;;8.75;3.08;;;23.70;62.30;;;;;;2089100;28;20104;-70
2022/06/13 05:48:30;;;;;;;8.43;3.10;;;23.20;62.90;;;;;;2089116;28;20017;-70
2022/06/13 05:49:30;;;;;;;7.63;3.15;;;22.70;64.30;;;;;;2088830;28;20044;-69
2022/06/13 05:50:32;;;;;;;8.95;3.20;;;22.10;66.80;;;;;;2088818;28;20051;-70
2022/06/13 05:51:33;;;;;;;7.03;3.13;;;21.60;67.90;;;;;;2089108;28;20029;-69
2022/06/13 05:52:33;;;;;;;5.97;3.10;;;21.10;69.90;;;;;;2088966;28;20360;-70
2022/06/13 05:53:34;;;;;;;9.27;2.83;;;20.90;71.00;;;;;;2089024;28;20104;-70
2022/06/13 05:54:34;;;;;;;6.35;3.05;;;20.90;71.90;;;;;;2089277;28;20060;-70
2022/06/13 05:55:35;;;;;;;7.15;3.15;;;21.20;71.60;;;;;;2089220;28;20037;-70
2022/06/13 05:56:37;;;;;;;7.32;3.00;;;21.50;70.10;;;;;;2089062;28;20029;-70
2022/06/13 05:57:39;;;;;;;4.28;2.67;;;21.80;69.20;;;;;;2089059;28;20032;-71
2022/06/13 05:58:40;;;;;;;6.22;2.95;;;22.20;68.50;;;;;;2089138;28;20029;-70
2022/06/13 05:59:40;;;;;;;7.15;3.08;;;22.60;67.60;;;;;;2089333;28;20718;-70
2022/06/13 06:00:47;;;;;;;6.95;3.40;;;23.00;66.80;;;;;;2096397;28;20036;-69
2022/06/13 06:01:48;;;;;;;7.25;2.97;;;23.10;66.20;;;;;;2096047;28;20025;-71
2022/06/13 06:02:49;;;;;;;8.18;3.50;;;23.30;65.90;;;;;;2089464;28;20104;-71
2022/06/13 06:03:49;;;;;;;7.35;3.35;;;23.30;64.60;;;;;;2089412;28;20020;-71
2022/06/13 06:04:51;;;;;;;10.07;4.30;;;23.20;64.60;;;;;;2089737;28;20457;-71